sensor_id;sensor_type;location;lat;lon;timestamp;temperature;humidity
20911;DHT22;10615;42.702;23.314;2023-02-28T00:00:18;8.50;99.90
20911;DHT22;10615;42.702;23.314;2023-02-28T00:01:20;8.60;99.90
20911;DHT22;10615;42.702;23.314;2023-02-28T00:02:21;8.50;99.90
20911;DHT22;10615;42.702;23.314;2023-02-28T00:03:21;8.50;99.90
20911;DHT22;10615;42.702;23.314;2023-02-28T00:04:22;8.50;99.90
20911;DHT22;10615;42.702;23.314;2023-02-28T00:05:24;8.50;99.90
20911;DHT22;10615;42.702;23.314;2023-02-28T00:06:26;8.50;99.90
20911;DHT22;10615;42.702;23.314;2023-02-28T00:07:27;8.50;99.90
20911;DHT22;10615;42.702;23.314;2023-02-28T00:08:28;8.50;99.90
20911;DHT22;10615;42.702;23.314;2023-02-28T00:09:29;8.50;99.90
20911;DHT22;10615;42.702;23.314;2023-02-28T00:10:30;8.50;99.90
20911;DHT22;10615;42.702;23.314;2023-02-28T00:11:31;8.50;99.90
20911;DHT22;10615;42.702;23.314;2023-02-28T00:12:32;8.50;99.90
20911;DHT22;10615;42.702;23.314;2023-02-28T00:13:34;8.50;99.90
20911;DHT22;10615;42.702;23.314;2023-02-28T00:14:36;8.50;99.90
20911;DHT22;10615;42.702;23.314;2023-02-28T00:15:37;8.50;99.90
20911;DHT22;10615;42.702;23.314;2023-02-28T00:16:37;8.50;99.90
20911;DHT22;10615;42.702;23.314;2023-02-28T00:17:38;8.50;99.90
20911;DHT22;10615;42.702;23.314;2023-02-28T00:18:39;8.50;99.90
20911;DHT22;10615;42.702;23.314;2023-02-28T00:19:39;8.50;99.90
20911;DHT22;10615;42.702;23.314;2023-02-28T00:20:40;8.50;99.90
20911;DHT22;10615;42.702;23.314;2023-02-28T00:21:41;8.50;99.90
20911;DHT22;10615;42.702;23.314;2023-02-28T00:22:43;8.40;99.90
20911;DHT22;10615;42.702;23.314;2023-02-28T00:23:44;8.40;99.90
20911;DHT22;10615;42.702;23.314;2023-02-28T00:24:45;8.40;99.90
20911;DHT22;10615;42.702;23.314;2023-02-28T00:25:46;8.50;99.90
20911;DHT22;10615;42.702;23.314;2023-02-28T00:26:47;8.40;99.90
20911;DHT22;10615;42.702;23.314;2023-02-28T00:27:48;8.40;99.90
20911;DHT22;10615;42.702;23.314;2023-02-28T00:28:48;8.40;99.90
20911;DHT22;10615;42.702;23.314;2023-02-28T00:29:49;8.40;99.90
20911;DHT22;10615;42.702;23.314;2023-02-28T00:30:50;8.30;99.90
20911;DHT22;10615;42.702;23.314;2023-02-28T00:31:50;8.40;99.90
20911;DHT22;10615;42.702;23.314;2023-02-28T00:32:51;8.30;99.90
20911;DHT22;10615;42.702;23.314;2023-02-28T00:33:52;8.30;99.90
20911;DHT22;10615;42.702;23.314;2023-02-28T00:34:52;8.30;99.90
20911;DHT22;10615;42.702;23.314;2023-02-28T00:36:01;8.30;99.90
20911;DHT22;10615;42.702;23.314;2023-02-28T00:37:05;8.30;99.90
20911;DHT22;10615;42.702;23.314;2023-02-28T00:38:06;8.30;99.90
20911;DHT22;10615;42.702;23.314;2023-02-28T00:39:07;8.30;99.90
20911;DHT22;10615;42.702;23.314;2023-02-28T00:40:08;8.30;99.90
20911;DHT22;10615;42.702;23.314;2023-02-28T00:41:09;8.20;99.90
20911;DHT22;10615;42.702;23.314;2023-02-28T00:42:10;8.20;99.90
20911;DHT22;10615;42.702;23.314;2023-02-28T00:43:11;8.20;99.90
20911;DHT22;10615;42.702;23.314;2023-02-28T00:44:11;8.20;99.90
20911;DHT22;10615;42.702;23.314;2023-02-28T00:45:12;8.10;99.90
20911;DHT22;10615;42.702;23.314;2023-02-28T00:46:12;8.10;99.90
20911;DHT22;10615;42.702;23.314;2023-02-28T00:47:13;8.10;99.90
20911;DHT22;10615;42.702;23.314;2023-02-28T00:48:14;8.00;99.90
20911;DHT22;10615;42.702;23.314;2023-02-28T00:49:16;8.00;99.90
20911;DHT22;10615;42.702;23.314;2023-02-28T00:50:20;8.00;99.90
20911;DHT22;10615;42.702;23.314;2023-02-28T00:51:21;7.90;99.90
20911;DHT22;10615;42.702;23.314;2023-02-28T00:52:21;7.80;99.90
20911;DHT22;10615;42.702;23.314;2023-02-28T00:53:22;7.80;99.90
20911;DHT22;10615;42.702;23.314;2023-02-28T00:54:23;7.80;99.90
20911;DHT22;10615;42.702;23.314;2023-02-28T00:55:24;7.80;99.90
20911;DHT22;10615;42.702;23.314;2023-02-28T00:56:25;7.70;99.90
20911;DHT22;10615;42.702;23.314;2023-02-28T00:57:25;7.70;99.90
20911;DHT22;10615;42.702;23.314;2023-02-28T00:58:26;7.70;99.90
20911;DHT22;10615;42.702;23.314;2023-02-28T00:59:27;7.60;99.90
20911;DHT22;10615;42.702;23.314;2023-02-28T01:00:28;7.60;99.90
20911;DHT22;10615;42.702;23.314;2023-02-28T01:01:28;7.50;99.90
20911;DHT22;10615;42.702;23.314;2023-02-28T01:02:29;7.50;99.90
20911;DHT22;10615;42.702;23.314;2023-02-28T01:03:30;7.50;99.90
20911;DHT22;10615;42.702;23.314;2023-02-28T01:04:30;7.50;99.90
20911;DHT22;10615;42.702;23.314;2023-02-28T01:05:31;7.50;99.90
20911;DHT22;10615;42.702;23.314;2023-02-28T01:06:32;7.50;99.90
20911;DHT22;10615;42.702;23.314;2023-02-28T01:07:32;7.50;99.90
20911;DHT22;10615;42.702;23.314;2023-02-28T01:08:33;7.50;99.90
20911;DHT22;10615;42.702;23.314;2023-02-28T01:09:33;7.50;99.90
20911;DHT22;10615;42.702;23.314;2023-02-28T01:10:34;7.40;99.90
20911;DHT22;10615;42.702;23.314;2023-02-28T01:11:37;7.40;99.90
20911;DHT22;10615;42.702;23.314;2023-02-28T01:12:38;7.40;99.90
20911;DHT22;10615;42.702;23.314;2023-02-28T01:13:39;7.40;99.90
20911;DHT22;10615;42.702;23.314;2023-02-28T01:14:40;7.40;99.90
20911;DHT22;10615;42.702;23.314;2023-02-28T01:15:43;7.30;99.90
20911;DHT22;10615;42.702;23.314;2023-02-28T01:16:45;7.30;99.90
20911;DHT22;10615;42.702;23.314;2023-02-28T01:17:46;7.30;99.90
20911;DHT22;10615;42.702;23.314;2023-02-28T01:18:47;7.30;99.90
20911;DHT22;10615;42.702;23.314;2023-02-28T01:19:48;7.30;99.90
20911;DHT22;10615;42.702;23.314;2023-02-28T01:20:49;7.30;99.90
20911;DHT22;10615;42.702;23.314;2023-02-28T01:21:49;7.30;99.90
20911;DHT22;10615;42.702;23.314;2023-02-28T01:22:50;7.30;99.90
20911;DHT22;10615;42.702;23.314;2023-02-28T01:23:51;7.30;99.90
20911;DHT22;10615;42.702;23.314;2023-02-28T01:24:52;7.30;99.90
20911;DHT22;10615;42.702;23.314;2023-02-28T01:25:53;7.30;99.90
20911;DHT22;10615;42.702;23.314;2023-02-28T01:26:53;7.30;99.90
20911;DHT22;10615;42.702;23.314;2023-02-28T01:27:54;7.30;99.90
20911;DHT22;10615;42.702;23.314;2023-02-28T01:28:55;7.40;99.90
20911;DHT22;10615;42.702;23.314;2023-02-28T01:29:56;7.40;99.90
20911;DHT22;10615;42.702;23.314;2023-02-28T01:30:56;7.40;99.90
20911;DHT22;10615;42.702;23.314;2023-02-28T01:31:57;7.40;99.90
20911;DHT22;10615;42.702;23.314;2023-02-28T01:32:59;7.40;99.90
20911;DHT22;10615;42.702;23.314;2023-02-28T01:34:00;7.40;99.90
20911;DHT22;10615;42.702;23.314;2023-02-28T01:35:01;7.40;99.90
20911;DHT22;10615;42.702;23.314;2023-02-28T01:36:17;7.40;99.90
20911;DHT22;10615;42.702;23.314;2023-02-28T01:37:18;7.40;99.90
20911;DHT22;10615;42.702;23.314;2023-02-28T01:38:18;7.40;99.90
20911;DHT22;10615;42.702;23.314;2023-02-28T01:39:19;7.40;99.90
20911;DHT22;10615;42.702;23.314;2023-02-28T01:40:20;7.40;99.90
20911;DHT22;10615;42.702;23.314;2023-02-28T01:41:24;7.40;99.90
20911;DHT22;10615;42.702;23.314;2023-02-28T01:42:25;7.40;99.90
20911;DHT22;10615;42.702;23.314;2023-02-28T01:45:48;7.40;99.90
20911;DHT22;10615;42.702;23.314;2023-02-28T01:46:34;7.40;99.90
20911;DHT22;10615;42.702;23.314;2023-02-28T01:47:39;7.40;99.90
20911;DHT22;10615;42.702;23.314;2023-02-28T01:48:48;7.40;99.90
20911;DHT22;10615;42.702;23.314;2023-02-28T01:49:50;7.40;99.90
20911;DHT22;10615;42.702;23.314;2023-02-28T01:50:52;7.40;99.90
20911;DHT22;10615;42.702;23.314;2023-02-28T01:51:56;7.40;99.90
20911;DHT22;10615;42.702;23.314;2023-02-28T01:53:00;7.30;99.90
20911;DHT22;10615;42.702;23.314;2023-02-28T01:54:08;7.30;99.90
20911;DHT22;10615;42.702;23.314;2023-02-28T01:55:15;7.20;99.90
20911;DHT22;10615;42.702;23.314;2023-02-28T01:56:20;7.20;99.90
20911;DHT22;10615;42.702;23.314;2023-02-28T01:57:27;7.20;99.90
20911;DHT22;10615;42.702;23.314;2023-02-28T01:58:30;7.10;99.90
20911;DHT22;10615;42.702;23.314;2023-02-28T02:00:49;7.10;99.90
20911;DHT22;10615;42.702;23.314;2023-02-28T02:01:50;7.10;99.90
20911;DHT22;10615;42.702;23.314;2023-02-28T02:02:54;7.10;99.90
20911;DHT22;10615;42.702;23.314;2023-02-28T02:03:57;7.10;99.90
20911;DHT22;10615;42.702;23.314;2023-02-28T02:05:20;7.10;99.90
20911;DHT22;10615;42.702;23.314;2023-02-28T02:06:27;7.10;99.90
20911;DHT22;10615;42.702;23.314;2023-02-28T02:07:32;7.00;99.90
20911;DHT22;10615;42.702;23.314;2023-02-28T02:08:33;7.00;99.90
20911;DHT22;10615;42.702;23.314;2023-02-28T02:09:34;7.10;99.90
20911;DHT22;10615;42.702;23.314;2023-02-28T02:11:36;7.10;99.90
20911;DHT22;10615;42.702;23.314;2023-02-28T02:12:42;7.10;99.90
20911;DHT22;10615;42.702;23.314;2023-02-28T02:15:04;7.10;99.90
20911;DHT22;10615;42.702;23.314;2023-02-28T02:17:30;7.10;99.90
20911;DHT22;10615;42.702;23.314;2023-02-28T02:26:06;7.10;99.90
20911;DHT22;10615;42.702;23.314;2023-02-28T02:29:59;7.20;99.90
20911;DHT22;10615;42.702;23.314;2023-02-28T02:39:22;7.30;99.90
20911;DHT22;10615;42.702;23.314;2023-02-28T02:40:31;7.30;99.90
20911;DHT22;10615;42.702;23.314;2023-02-28T02:41:54;7.30;99.90
20911;DHT22;10615;42.702;23.314;2023-02-28T02:44:40;7.30;99.90
20911;DHT22;10615;42.702;23.314;2023-02-28T02:45:56;7.30;99.90
20911;DHT22;10615;42.702;23.314;2023-02-28T02:47:03;7.30;99.90
20911;DHT22;10615;42.702;23.314;2023-02-28T02:48:10;7.30;99.90
20911;DHT22;10615;42.702;23.314;2023-02-28T02:49:17;7.30;99.90
20911;DHT22;10615;42.702;23.314;2023-02-28T02:50:31;7.30;99.90
20911;DHT22;10615;42.702;23.314;2023-02-28T02:51:34;7.30;99.90
20911;DHT22;10615;42.702;23.314;2023-02-28T02:52:49;7.20;99.90
20911;DHT22;10615;42.702;23.314;2023-02-28T02:54:06;7.20;99.90
20911;DHT22;10615;42.702;23.314;2023-02-28T02:55:09;7.20;99.90
20911;DHT22;10615;42.702;23.314;2023-02-28T02:56:13;7.20;99.90
20911;DHT22;10615;42.702;23.314;2023-02-28T02:57:23;7.20;99.90
20911;DHT22;10615;42.702;23.314;2023-02-28T02:58:27;7.20;99.90
20911;DHT22;10615;42.702;23.314;2023-02-28T02:59:30;7.20;99.90
20911;DHT22;10615;42.702;23.314;2023-02-28T03:00:39;7.10;99.90
20911;DHT22;10615;42.702;23.314;2023-02-28T03:01:41;7.20;99.90
20911;DHT22;10615;42.702;23.314;2023-02-28T03:02:44;7.10;99.90
20911;DHT22;10615;42.702;23.314;2023-02-28T03:03:46;7.10;99.90
20911;DHT22;10615;42.702;23.314;2023-02-28T03:04:51;7.20;99.90
20911;DHT22;10615;42.702;23.314;2023-02-28T03:05:52;7.20;99.90
20911;DHT22;10615;42.702;23.314;2023-02-28T03:06:53;7.20;99.90
20911;DHT22;10615;42.702;23.314;2023-02-28T03:07:57;7.20;99.90
20911;DHT22;10615;42.702;23.314;2023-02-28T03:08:59;7.30;99.90
20911;DHT22;10615;42.702;23.314;2023-02-28T03:10:00;7.30;99.90
20911;DHT22;10615;42.702;23.314;2023-02-28T03:11:04;7.30;99.90
20911;DHT22;10615;42.702;23.314;2023-02-28T03:12:11;7.30;99.90
20911;DHT22;10615;42.702;23.314;2023-02-28T03:14:04;7.30;99.90
20911;DHT22;10615;42.702;23.314;2023-02-28T03:19:55;7.30;99.90
20911;DHT22;10615;42.702;23.314;2023-02-28T03:26:19;7.30;99.90
20911;DHT22;10615;42.702;23.314;2023-02-28T03:27:27;7.30;99.90
20911;DHT22;10615;42.702;23.314;2023-02-28T03:28:49;7.30;99.90
20911;DHT22;10615;42.702;23.314;2023-02-28T03:30:06;7.30;99.90
20911;DHT22;10615;42.702;23.314;2023-02-28T03:31:16;7.30;99.90
20911;DHT22;10615;42.702;23.314;2023-02-28T03:32:24;7.30;99.90
20911;DHT22;10615;42.702;23.314;2023-02-28T03:33:31;7.30;99.90
20911;DHT22;10615;42.702;23.314;2023-02-28T03:34:36;7.30;99.90
20911;DHT22;10615;42.702;23.314;2023-02-28T03:37:13;7.30;99.90
20911;DHT22;10615;42.702;23.314;2023-02-28T03:38:31;7.30;99.90
20911;DHT22;10615;42.702;23.314;2023-02-28T03:40:01;7.30;99.90
20911;DHT22;10615;42.702;23.314;2023-02-28T03:42:21;7.30;99.90
20911;DHT22;10615;42.702;23.314;2023-02-28T03:43:28;7.20;99.90
20911;DHT22;10615;42.702;23.314;2023-02-28T03:44:35;7.30;99.90
20911;DHT22;10615;42.702;23.314;2023-02-28T03:45:39;7.30;99.90
20911;DHT22;10615;42.702;23.314;2023-02-28T03:46:43;7.30;99.90
20911;DHT22;10615;42.702;23.314;2023-02-28T03:48:05;7.30;99.90
20911;DHT22;10615;42.702;23.314;2023-02-28T03:49:19;7.30;99.90
20911;DHT22;10615;42.702;23.314;2023-02-28T03:50:27;7.30;99.90
20911;DHT22;10615;42.702;23.314;2023-02-28T03:51:30;7.30;99.90
20911;DHT22;10615;42.702;23.314;2023-02-28T03:52:36;7.30;99.90
20911;DHT22;10615;42.702;23.314;2023-02-28T03:54:03;7.30;99.90
20911;DHT22;10615;42.702;23.314;2023-02-28T03:55:09;7.20;99.90
20911;DHT22;10615;42.702;23.314;2023-02-28T03:56:30;7.20;99.90
20911;DHT22;10615;42.702;23.314;2023-02-28T03:59:28;7.20;99.90
20911;DHT22;10615;42.702;23.314;2023-02-28T04:00:35;7.20;99.90
20911;DHT22;10615;42.702;23.314;2023-02-28T04:01:40;7.20;99.90
20911;DHT22;10615;42.702;23.314;2023-02-28T04:02:41;7.20;99.90
20911;DHT22;10615;42.702;23.314;2023-02-28T04:03:42;7.20;99.90
20911;DHT22;10615;42.702;23.314;2023-02-28T04:04:43;7.20;99.90
20911;DHT22;10615;42.702;23.314;2023-02-28T04:05:51;7.20;99.90
20911;DHT22;10615;42.702;23.314;2023-02-28T04:06:53;7.20;99.90
20911;DHT22;10615;42.702;23.314;2023-02-28T04:08:06;7.20;99.90
20911;DHT22;10615;42.702;23.314;2023-02-28T04:09:10;7.20;99.90
20911;DHT22;10615;42.702;23.314;2023-02-28T04:10:12;7.20;99.90
20911;DHT22;10615;42.702;23.314;2023-02-28T04:11:18;7.20;99.90
20911;DHT22;10615;42.702;23.314;2023-02-28T04:12:20;7.20;99.90
20911;DHT22;10615;42.702;23.314;2023-02-28T04:13:23;7.30;99.90
20911;DHT22;10615;42.702;23.314;2023-02-28T04:14:24;7.20;99.90
20911;DHT22;10615;42.702;23.314;2023-02-28T04:15:24;7.20;99.90
20911;DHT22;10615;42.702;23.314;2023-02-28T04:16:28;7.20;99.90
20911;DHT22;10615;42.702;23.314;2023-02-28T04:17:28;7.20;99.90
20911;DHT22;10615;42.702;23.314;2023-02-28T04:18:29;7.20;99.90
20911;DHT22;10615;42.702;23.314;2023-02-28T04:19:29;7.30;99.90
20911;DHT22;10615;42.702;23.314;2023-02-28T04:20:30;7.20;99.90
20911;DHT22;10615;42.702;23.314;2023-02-28T04:21:38;7.20;99.90
20911;DHT22;10615;42.702;23.314;2023-02-28T04:22:42;7.20;99.90
20911;DHT22;10615;42.702;23.314;2023-02-28T04:23:42;7.20;99.90
20911;DHT22;10615;42.702;23.314;2023-02-28T04:24:43;7.20;99.90
20911;DHT22;10615;42.702;23.314;2023-02-28T04:25:44;7.20;99.90
20911;DHT22;10615;42.702;23.314;2023-02-28T04:26:46;7.10;99.90
20911;DHT22;10615;42.702;23.314;2023-02-28T04:27:47;7.10;99.90
20911;DHT22;10615;42.702;23.314;2023-02-28T04:28:48;7.10;99.90
20911;DHT22;10615;42.702;23.314;2023-02-28T04:29:49;7.10;99.90
20911;DHT22;10615;42.702;23.314;2023-02-28T04:31:01;7.10;99.90
20911;DHT22;10615;42.702;23.314;2023-02-28T04:32:02;7.10;99.90
20911;DHT22;10615;42.702;23.314;2023-02-28T04:33:03;7.10;99.90
20911;DHT22;10615;42.702;23.314;2023-02-28T04:34:04;7.10;99.90
20911;DHT22;10615;42.702;23.314;2023-02-28T04:35:05;7.10;99.90
20911;DHT22;10615;42.702;23.314;2023-02-28T04:36:08;7.10;99.90
20911;DHT22;10615;42.702;23.314;2023-02-28T04:37:09;7.10;99.90
20911;DHT22;10615;42.702;23.314;2023-02-28T04:38:09;7.10;99.90
20911;DHT22;10615;42.702;23.314;2023-02-28T04:39:10;7.10;99.90
20911;DHT22;10615;42.702;23.314;2023-02-28T04:40:11;7.10;99.90
20911;DHT22;10615;42.702;23.314;2023-02-28T04:41:15;7.10;99.90
20911;DHT22;10615;42.702;23.314;2023-02-28T04:42:16;7.10;99.90
20911;DHT22;10615;42.702;23.314;2023-02-28T04:43:17;7.10;99.90
20911;DHT22;10615;42.702;23.314;2023-02-28T04:44:18;7.10;99.90
20911;DHT22;10615;42.702;23.314;2023-02-28T04:45:18;7.10;99.90
20911;DHT22;10615;42.702;23.314;2023-02-28T04:46:19;7.10;99.90
20911;DHT22;10615;42.702;23.314;2023-02-28T04:47:20;7.00;99.90
20911;DHT22;10615;42.702;23.314;2023-02-28T04:48:20;7.00;99.90
20911;DHT22;10615;42.702;23.314;2023-02-28T04:49:21;7.00;99.90
20911;DHT22;10615;42.702;23.314;2023-02-28T04:50:22;7.00;99.90
20911;DHT22;10615;42.702;23.314;2023-02-28T04:51:22;7.00;99.90
20911;DHT22;10615;42.702;23.314;2023-02-28T04:52:23;6.90;99.90
20911;DHT22;10615;42.702;23.314;2023-02-28T04:53:24;7.00;99.90
20911;DHT22;10615;42.702;23.314;2023-02-28T04:54:24;7.00;99.90
20911;DHT22;10615;42.702;23.314;2023-02-28T04:55:25;7.00;99.90
20911;DHT22;10615;42.702;23.314;2023-02-28T04:56:25;7.00;99.90
20911;DHT22;10615;42.702;23.314;2023-02-28T04:57:26;7.00;99.90
20911;DHT22;10615;42.702;23.314;2023-02-28T04:58:27;7.00;99.90
20911;DHT22;10615;42.702;23.314;2023-02-28T04:59:28;7.00;99.90
20911;DHT22;10615;42.702;23.314;2023-02-28T05:00:29;7.00;99.90
20911;DHT22;10615;42.702;23.314;2023-02-28T05:01:32;7.00;99.90
20911;DHT22;10615;42.702;23.314;2023-02-28T05:02:34;7.00;99.90
20911;DHT22;10615;42.702;23.314;2023-02-28T05:03:35;7.00;99.90
20911;DHT22;10615;42.702;23.314;2023-02-28T05:04:36;6.90;99.90
20911;DHT22;10615;42.702;23.314;2023-02-28T05:05:37;6.90;99.90
20911;DHT22;10615;42.702;23.314;2023-02-28T05:06:37;6.90;99.90
20911;DHT22;10615;42.702;23.314;2023-02-28T05:07:38;6.90;99.90
20911;DHT22;10615;42.702;23.314;2023-02-28T05:08:39;6.80;99.90
20911;DHT22;10615;42.702;23.314;2023-02-28T05:09:40;6.80;99.90
20911;DHT22;10615;42.702;23.314;2023-02-28T05:10:41;6.80;99.90
20911;DHT22;10615;42.702;23.314;2023-02-28T05:11:41;6.80;99.90
20911;DHT22;10615;42.702;23.314;2023-02-28T05:12:42;6.80;99.90
20911;DHT22;10615;42.702;23.314;2023-02-28T05:13:43;6.80;99.90
20911;DHT22;10615;42.702;23.314;2023-02-28T05:14:44;6.80;99.90
20911;DHT22;10615;42.702;23.314;2023-02-28T05:15:45;6.80;99.90
20911;DHT22;10615;42.702;23.314;2023-02-28T05:16:45;6.80;99.90
20911;DHT22;10615;42.702;23.314;2023-02-28T05:17:46;6.80;99.90
20911;DHT22;10615;42.702;23.314;2023-02-28T05:18:47;6.80;99.90
20911;DHT22;10615;42.702;23.314;2023-02-28T05:19:48;6.80;99.90
20911;DHT22;10615;42.702;23.314;2023-02-28T05:20:48;6.90;99.90
20911;DHT22;10615;42.702;23.314;2023-02-28T05:21:51;6.90;99.90
20911;DHT22;10615;42.702;23.314;2023-02-28T05:22:52;6.90;99.90
20911;DHT22;10615;42.702;23.314;2023-02-28T05:23:53;6.90;99.90
20911;DHT22;10615;42.702;23.314;2023-02-28T05:24:55;6.90;99.90
20911;DHT22;10615;42.702;23.314;2023-02-28T05:25:56;6.90;99.90
20911;DHT22;10615;42.702;23.314;2023-02-28T05:26:57;6.90;99.90
20911;DHT22;10615;42.702;23.314;2023-02-28T05:27:58;6.90;99.90
20911;DHT22;10615;42.702;23.314;2023-02-28T05:28:59;6.90;99.90
20911;DHT22;10615;42.702;23.314;2023-02-28T05:30:00;6.90;99.90
20911;DHT22;10615;42.702;23.314;2023-02-28T05:31:03;6.90;99.90
20911;DHT22;10615;42.702;23.314;2023-02-28T05:32:04;6.90;99.90
20911;DHT22;10615;42.702;23.314;2023-02-28T05:33:05;7.00;99.90
20911;DHT22;10615;42.702;23.314;2023-02-28T05:34:06;7.00;99.90
20911;DHT22;10615;42.702;23.314;2023-02-28T05:35:07;7.00;99.90
20911;DHT22;10615;42.702;23.314;2023-02-28T05:36:08;7.00;99.90
20911;DHT22;10615;42.702;23.314;2023-02-28T05:37:12;7.10;99.90
20911;DHT22;10615;42.702;23.314;2023-02-28T05:38:13;7.20;99.90
20911;DHT22;10615;42.702;23.314;2023-02-28T05:39:14;7.30;99.90
20911;DHT22;10615;42.702;23.314;2023-02-28T05:40:14;7.40;99.90
20911;DHT22;10615;42.702;23.314;2023-02-28T05:41:17;7.40;99.90
20911;DHT22;10615;42.702;23.314;2023-02-28T05:42:17;7.50;99.90
20911;DHT22;10615;42.702;23.314;2023-02-28T05:43:18;7.50;99.90
20911;DHT22;10615;42.702;23.314;2023-02-28T05:44:19;7.50;99.90
20911;DHT22;10615;42.702;23.314;2023-02-28T05:45:20;7.50;99.90
20911;DHT22;10615;42.702;23.314;2023-02-28T05:46:20;7.60;99.90
20911;DHT22;10615;42.702;23.314;2023-02-28T05:47:21;7.60;99.90
20911;DHT22;10615;42.702;23.314;2023-02-28T05:48:21;7.60;99.90
20911;DHT22;10615;42.702;23.314;2023-02-28T05:49:22;7.70;99.90
20911;DHT22;10615;42.702;23.314;2023-02-28T05:50:23;7.70;99.90
20911;DHT22;10615;42.702;23.314;2023-02-28T05:51:23;7.70;99.90
20911;DHT22;10615;42.702;23.314;2023-02-28T05:52:24;7.70;99.90
20911;DHT22;10615;42.702;23.314;2023-02-28T05:53:25;7.70;99.90
20911;DHT22;10615;42.702;23.314;2023-02-28T05:54:26;7.70;99.90
20911;DHT22;10615;42.702;23.314;2023-02-28T05:55:27;7.70;99.90
20911;DHT22;10615;42.702;23.314;2023-02-28T05:56:28;7.70;99.90
20911;DHT22;10615;42.702;23.314;2023-02-28T05:57:29;7.70;99.90
20911;DHT22;10615;42.702;23.314;2023-02-28T05:58:30;7.70;99.90
20911;DHT22;10615;42.702;23.314;2023-02-28T05:59:31;7.70;99.90
20911;DHT22;10615;42.702;23.314;2023-02-28T06:00:31;7.70;99.90
20911;DHT22;10615;42.702;23.314;2023-02-28T06:01:43;7.70;99.90
20911;DHT22;10615;42.702;23.314;2023-02-28T06:02:48;7.70;99.90
20911;DHT22;10615;42.702;23.314;2023-02-28T06:03:49;7.70;99.90
20911;DHT22;10615;42.702;23.314;2023-02-28T06:04:49;7.70;99.90
20911;DHT22;10615;42.702;23.314;2023-02-28T06:05:50;7.70;99.90
20911;DHT22;10615;42.702;23.314;2023-02-28T06:06:51;7.70;99.90
20911;DHT22;10615;42.702;23.314;2023-02-28T06:07:52;7.70;99.90
20911;DHT22;10615;42.702;23.314;2023-02-28T06:08:52;7.70;99.90
20911;DHT22;10615;42.702;23.314;2023-02-28T06:09:53;7.70;99.90
20911;DHT22;10615;42.702;23.314;2023-02-28T06:10:54;7.80;99.90
20911;DHT22;10615;42.702;23.314;2023-02-28T06:11:58;7.80;99.90
20911;DHT22;10615;42.702;23.314;2023-02-28T06:14:21;7.90;99.90
20911;DHT22;10615;42.702;23.314;2023-02-28T06:15:22;7.90;99.90
20911;DHT22;10615;42.702;23.314;2023-02-28T06:16:23;8.00;99.90
20911;DHT22;10615;42.702;23.314;2023-02-28T06:17:24;8.10;99.90
20911;DHT22;10615;42.702;23.314;2023-02-28T06:18:25;8.20;99.90
20911;DHT22;10615;42.702;23.314;2023-02-28T06:19:26;8.20;99.90
20911;DHT22;10615;42.702;23.314;2023-02-28T06:20:27;8.40;99.90
20911;DHT22;10615;42.702;23.314;2023-02-28T06:21:31;8.40;99.90
20911;DHT22;10615;42.702;23.314;2023-02-28T06:22:31;8.40;99.90
20911;DHT22;10615;42.702;23.314;2023-02-28T06:23:32;8.50;99.90
20911;DHT22;10615;42.702;23.314;2023-02-28T06:24:33;8.40;99.90
20911;DHT22;10615;42.702;23.314;2023-02-28T06:25:33;8.40;99.90
20911;DHT22;10615;42.702;23.314;2023-02-28T06:26:35;8.40;99.90
20911;DHT22;10615;42.702;23.314;2023-02-28T06:27:36;8.30;99.90
20911;DHT22;10615;42.702;23.314;2023-02-28T06:28:37;8.40;99.90
20911;DHT22;10615;42.702;23.314;2023-02-28T06:29:37;8.40;99.90
20911;DHT22;10615;42.702;23.314;2023-02-28T06:30:40;8.40;99.90
20911;DHT22;10615;42.702;23.314;2023-02-28T06:31:40;8.40;99.90
20911;DHT22;10615;42.702;23.314;2023-02-28T06:32:41;8.40;99.90
20911;DHT22;10615;42.702;23.314;2023-02-28T06:33:42;8.30;99.90
20911;DHT22;10615;42.702;23.314;2023-02-28T06:34:43;8.20;99.90
20911;DHT22;10615;42.702;23.314;2023-02-28T06:35:46;8.20;99.90
20911;DHT22;10615;42.702;23.314;2023-02-28T06:36:51;8.30;99.90
20911;DHT22;10615;42.702;23.314;2023-02-28T06:37:51;8.40;99.90
20911;DHT22;10615;42.702;23.314;2023-02-28T06:38:52;8.40;99.90
20911;DHT22;10615;42.702;23.314;2023-02-28T06:39:55;8.40;99.90
20911;DHT22;10615;42.702;23.314;2023-02-28T06:40:57;8.40;99.90
20911;DHT22;10615;42.702;23.314;2023-02-28T06:41:58;8.50;99.90
20911;DHT22;10615;42.702;23.314;2023-02-28T06:42:59;8.50;99.90
20911;DHT22;10615;42.702;23.314;2023-02-28T06:43:59;8.50;99.90
20911;DHT22;10615;42.702;23.314;2023-02-28T06:45:00;8.50;99.90
20911;DHT22;10615;42.702;23.314;2023-02-28T06:46:05;8.40;99.90
20911;DHT22;10615;42.702;23.314;2023-02-28T06:47:06;8.50;99.90
20911;DHT22;10615;42.702;23.314;2023-02-28T06:48:07;8.50;99.90
20911;DHT22;10615;42.702;23.314;2023-02-28T06:49:08;8.50;99.90
20911;DHT22;10615;42.702;23.314;2023-02-28T06:50:11;8.50;99.90
20911;DHT22;10615;42.702;23.314;2023-02-28T06:51:17;8.50;99.90
20911;DHT22;10615;42.702;23.314;2023-02-28T06:52:20;8.50;99.90
20911;DHT22;10615;42.702;23.314;2023-02-28T06:53:22;8.40;99.90
20911;DHT22;10615;42.702;23.314;2023-02-28T06:54:22;8.50;99.90
20911;DHT22;10615;42.702;23.314;2023-02-28T06:55:23;8.50;99.90
20911;DHT22;10615;42.702;23.314;2023-02-28T06:56:24;8.50;99.90
20911;DHT22;10615;42.702;23.314;2023-02-28T06:57:28;8.50;99.90
20911;DHT22;10615;42.702;23.314;2023-02-28T06:58:31;8.50;99.90
20911;DHT22;10615;42.702;23.314;2023-02-28T06:59:32;8.60;99.90
20911;DHT22;10615;42.702;23.314;2023-02-28T07:00:32;8.60;99.90
20911;DHT22;10615;42.702;23.314;2023-02-28T07:01:34;8.70;99.90
20911;DHT22;10615;42.702;23.314;2023-02-28T07:02:36;8.70;99.90
20911;DHT22;10615;42.702;23.314;2023-02-28T07:03:37;8.70;99.90
20911;DHT22;10615;42.702;23.314;2023-02-28T07:04:38;8.70;99.90
20911;DHT22;10615;42.702;23.314;2023-02-28T07:05:40;8.70;99.90
20911;DHT22;10615;42.702;23.314;2023-02-28T07:06:41;8.80;99.90
20911;DHT22;10615;42.702;23.314;2023-02-28T07:07:42;8.80;99.90
20911;DHT22;10615;42.702;23.314;2023-02-28T07:08:45;8.80;99.90
20911;DHT22;10615;42.702;23.314;2023-02-28T07:09:45;8.80;99.90
20911;DHT22;10615;42.702;23.314;2023-02-28T07:10:46;8.80;99.90
20911;DHT22;10615;42.702;23.314;2023-02-28T07:11:46;8.80;99.90
20911;DHT22;10615;42.702;23.314;2023-02-28T07:12:47;8.80;99.90
20911;DHT22;10615;42.702;23.314;2023-02-28T07:13:49;8.80;99.90
20911;DHT22;10615;42.702;23.314;2023-02-28T07:14:51;8.70;99.90
20911;DHT22;10615;42.702;23.314;2023-02-28T07:15:59;8.70;99.90
20911;DHT22;10615;42.702;23.314;2023-02-28T07:17:00;8.60;99.90
20911;DHT22;10615;42.702;23.314;2023-02-28T07:18:01;8.60;99.90
20911;DHT22;10615;42.702;23.314;2023-02-28T07:19:02;8.60;99.90
20911;DHT22;10615;42.702;23.314;2023-02-28T07:20:03;8.50;99.90